createdAt,value
2018-06-12T00:01:05.470Z,3.17
2018-06-12T00:06:08.768Z,3.17
2018-06-12T00:11:12.099Z,3.40
2018-06-12T00:16:15.898Z,3.40
2018-06-12T00:21:19.175Z,3.15
2018-06-12T00:26:22.527Z,3.50
2018-06-12T00:31:25.750Z,3.52
2018-06-12T00:36:29.296Z,3.50
2018-06-12T00:41:32.587Z,3.60
2018-06-12T00:46:36.020Z,3.83
2018-06-12T00:51:39.275Z,3.60
2018-06-12T00:56:47.993Z,3.87
2018-06-12T01:01:51.271Z,3.52
2018-06-12T01:06:54.500Z,3.65
2018-06-12T01:11:57.805Z,3.95
2018-06-12T01:17:01.447Z,3.90
2018-06-12T01:22:04.988Z,3.60
2018-06-12T01:27:08.364Z,3.20
2018-06-12T01:32:11.660Z,3.60
2018-06-12T01:37:16.024Z,3.45
2018-06-12T01:42:19.325Z,3.47
2018-06-12T01:47:22.616Z,3.45
2018-06-12T01:52:25.958Z,3.20
2018-06-12T01:57:29.384Z,3.25
2018-06-12T02:02:32.816Z,3.85
2018-06-12T02:07:36.326Z,3.17
2018-06-12T02:12:39.543Z,3.42
2018-06-12T02:17:42.746Z,3.00
2018-06-12T02:22:46.024Z,3.15
2018-06-12T02:27:49.495Z,2.92
2018-06-12T02:32:53.066Z,3.35
2018-06-12T02:37:56.533Z,2.67
2018-06-12T02:42:59.875Z,2.70
2018-06-12T02:48:03.364Z,3.17
2018-06-12T02:53:06.838Z,3.02
2018-06-12T02:58:10.096Z,3.05
2018-06-12T03:03:13.446Z,3.02
2018-06-12T03:08:16.685Z,2.40
2018-06-12T03:13:20.189Z,3.00
2018-06-12T03:18:23.986Z,2.70
2018-06-12T03:23:27.605Z,3.10
2018-06-12T03:28:31.096Z,3.10
2018-06-12T03:33:34.500Z,2.92
2018-06-12T03:38:38.196Z,3.20
2018-06-12T03:43:42.507Z,2.80
2018-06-12T03:48:48.551Z,3.30
2018-06-12T03:53:52.132Z,3.10
2018-06-12T03:58:56.001Z,2.35
2018-06-12T04:03:59.625Z,2.50
2018-06-12T04:09:03.048Z,3.40
2018-06-12T04:14:07.635Z,3.17
2018-06-12T04:19:11.225Z,3.67
2018-06-12T04:24:14.785Z,3.40
2018-06-12T04:29:18.143Z,3.90
2018-06-12T04:34:21.824Z,3.60
2018-06-12T04:39:25.332Z,3.30
2018-06-12T04:44:28.718Z,3.80
2018-06-12T04:49:32.563Z,3.98
2018-06-12T04:54:36.627Z,3.85
2018-06-12T04:59:40.160Z,3.62
2018-06-12T05:04:43.591Z,4.55
2018-06-12T05:15:00.909Z,4.15
2018-06-12T05:20:04.624Z,4.22
2018-06-12T05:25:08.229Z,3.85
2018-06-12T05:30:11.671Z,4.87
2018-06-12T05:35:15.381Z,3.90
2018-06-12T05:40:19.039Z,5.03
2018-06-12T05:45:22.871Z,4.58
2018-06-12T05:50:26.429Z,4.78
2018-06-12T05:55:29.675Z,5.25
2018-06-12T06:00:33.267Z,4.33
2018-06-12T06:05:36.636Z,5.10
2018-06-12T06:10:40.196Z,5.20
2018-06-12T06:15:44.045Z,4.85
2018-06-12T06:20:47.774Z,4.58
2018-06-12T06:25:51.382Z,5.35
2018-06-12T06:30:54.684Z,4.08
2018-06-12T06:35:57.878Z,4.47
2018-06-12T06:41:01.139Z,4.03
2018-06-12T06:46:04.557Z,3.77
2018-06-12T06:51:07.982Z,4.70
2018-06-12T06:56:11.570Z,4.70
2018-06-12T07:01:14.850Z,4.15
2018-06-12T07:06:18.341Z,4.33
2018-06-12T07:11:21.967Z,3.52
2018-06-12T07:16:25.183Z,4.55
2018-06-12T07:21:28.660Z,3.90
2018-06-12T07:26:32.773Z,3.02
2018-06-12T07:31:36.686Z,4.35
2018-06-12T07:36:40.444Z,3.58
2018-06-12T07:41:43.853Z,2.90
2018-06-12T07:46:47.214Z,4.08
2018-06-12T07:51:50.847Z,4.20
2018-06-12T07:56:54.329Z,2.80
2018-06-12T08:01:57.886Z,2.67
2018-06-12T08:07:10.736Z,2.52
2018-06-12T08:12:14.110Z,2.67
2018-06-12T08:17:17.569Z,2.95
2018-06-12T08:22:21.090Z,2.80
2018-06-12T08:27:25.119Z,2.45
2018-06-12T08:32:28.432Z,2.77
2018-06-12T08:37:33.299Z,2.90
2018-06-12T08:42:37.489Z,3.08
2018-06-12T08:47:40.754Z,2.90
2018-06-12T08:52:44.356Z,2.75
2018-06-12T08:57:47.899Z,2.87
2018-06-12T09:02:51.488Z,2.90
2018-06-12T09:07:54.753Z,2.80
2018-06-12T09:12:58.213Z,2.80
2018-06-12T09:18:02.022Z,2.22
2018-06-12T09:23:05.347Z,2.60
2018-06-12T09:28:08.807Z,2.60
2018-06-12T09:33:12.565Z,2.52
2018-06-12T09:38:15.811Z,2.62
2018-06-12T09:43:19.051Z,2.40
2018-06-12T09:48:22.209Z,2.72
2018-06-12T09:53:25.645Z,2.52
2018-06-12T09:58:29.595Z,2.90
2018-06-12T10:03:32.763Z,2.50
2018-06-12T10:08:36.201Z,2.80
2018-06-12T10:13:39.576Z,2.80
2018-06-12T10:18:43.019Z,3.02
2018-06-12T10:23:46.455Z,2.70
2018-06-12T10:28:50.439Z,3.45
2018-06-12T10:33:53.793Z,3.00
2018-06-12T10:38:57.262Z,3.08
2018-06-12T10:44:00.855Z,2.77
2018-06-12T10:49:04.131Z,2.98
2018-06-12T10:54:08.177Z,2.83
2018-06-12T10:59:11.464Z,2.85
2018-06-12T11:04:14.976Z,2.83
2018-06-12T11:09:18.380Z,2.80
2018-06-12T11:14:21.679Z,2.77
2018-06-12T11:19:24.865Z,2.70
2018-06-12T11:24:28.128Z,2.95
2018-06-12T11:29:31.456Z,2.65
2018-06-12T11:34:34.581Z,2.77
2018-06-12T11:39:38.195Z,2.87
2018-06-12T11:44:41.656Z,2.83
2018-06-12T11:49:45.113Z,2.83
2018-06-12T11:54:48.460Z,2.70
2018-06-12T11:59:51.965Z,2.72
2018-06-12T12:04:55.562Z,3.15
2018-06-12T12:09:59.126Z,2.67
2018-06-12T12:15:03.058Z,2.83
2018-06-12T12:20:06.247Z,2.58
2018-06-12T12:25:09.368Z,2.85
2018-06-12T12:30:12.676Z,2.62
2018-06-12T12:35:16.419Z,2.80
2018-06-12T12:40:19.688Z,2.40
2018-06-12T12:45:23.916Z,2.77
2018-06-12T12:50:27.701Z,2.40
2018-06-12T12:55:32.453Z,2.30
2018-06-12T13:00:36.133Z,2.10
2018-06-12T13:05:39.450Z,2.45
2018-06-12T13:10:42.932Z,2.17
2018-06-12T13:15:46.078Z,2.40
2018-06-12T13:20:49.191Z,2.20
2018-06-12T13:25:52.479Z,2.40
2018-06-12T13:30:55.938Z,2.33
2018-06-12T13:35:59.771Z,2.30
2018-06-12T13:41:03.524Z,2.50
2018-06-12T13:46:06.784Z,1.95
2018-06-12T13:51:10.745Z,1.92
2018-06-12T13:56:13.933Z,2.25
2018-06-12T14:01:17.508Z,2.20
2018-06-12T14:06:20.932Z,2.30
2018-06-12T14:11:24.220Z,2.17
2018-06-12T14:16:27.623Z,2.10
2018-06-12T14:21:31.003Z,2.30
2018-06-12T14:26:34.747Z,1.80
2018-06-12T14:31:38.336Z,2.67
2018-06-12T14:36:41.588Z,2.08
2018-06-12T14:41:44.747Z,2.08
2018-06-12T14:46:48.026Z,2.40
2018-06-12T14:51:51.272Z,2.17
2018-06-12T14:56:54.515Z,1.95
2018-06-12T15:01:57.783Z,1.40
2018-06-12T15:07:01.120Z,1.62
2018-06-12T15:12:04.355Z,1.60
2018-06-12T15:17:07.604Z,1.75
2018-06-12T15:22:11.258Z,2.20
2018-06-12T15:27:14.547Z,1.65
2018-06-12T15:32:18.015Z,1.60
2018-06-12T15:37:22.119Z,1.50
2018-06-12T15:42:25.977Z,1.70
2018-06-12T15:47:29.267Z,1.55
2018-06-12T15:52:32.680Z,1.57
2018-06-12T15:57:35.939Z,1.67
2018-06-12T16:02:39.507Z,1.65
2018-06-12T16:07:42.692Z,1.52
2018-06-12T16:12:46.078Z,1.50
2018-06-12T16:17:49.463Z,1.55
2018-06-12T16:22:52.865Z,1.80
2018-06-12T16:27:56.920Z,2.02
2018-06-12T16:33:00.404Z,1.82
2018-06-12T16:38:03.858Z,1.87
2018-06-12T16:43:07.171Z,2.02
2018-06-12T16:48:10.391Z,2.10
2018-06-12T16:53:13.665Z,1.87
2018-06-12T16:58:17.111Z,2.00
2018-06-12T17:03:20.400Z,1.80
2018-06-12T17:08:23.807Z,1.60
2018-06-12T17:13:27.031Z,1.90
2018-06-12T17:18:30.729Z,1.72
2018-06-12T17:23:34.186Z,1.70
2018-06-12T17:28:37.842Z,1.90
2018-06-12T17:33:42.155Z,1.90
2018-06-12T17:38:45.685Z,1.82
2018-06-12T17:43:49.176Z,1.85
2018-06-12T17:48:54.881Z,1.80
2018-06-12T17:53:58.754Z,1.55
2018-06-12T17:59:02.211Z,1.65
2018-06-12T18:04:05.470Z,1.47
2018-06-12T18:09:08.730Z,1.85
2018-06-12T18:14:15.720Z,1.77
2018-06-12T18:19:19.348Z,1.50
2018-06-12T18:24:25.115Z,1.82
2018-06-12T18:29:28.924Z,1.50
2018-06-12T18:34:32.630Z,1.77
2018-06-12T18:39:36.289Z,1.60
2018-06-12T18:44:40.753Z,1.60
2018-06-12T18:49:44.422Z,1.70
2018-06-12T18:54:48.718Z,1.57
2018-06-12T18:59:52.121Z,1.75
2018-06-12T19:04:55.679Z,1.52
2018-06-12T19:09:59.301Z,1.90
2018-06-12T19:15:07.633Z,1.70
2018-06-12T19:20:11.192Z,1.63
2018-06-12T19:25:15.393Z,1.70
2018-06-12T19:30:18.843Z,1.82
2018-06-12T19:35:22.319Z,1.30
2018-06-12T19:40:25.573Z,1.37
2018-06-12T19:45:28.873Z,1.77
2018-06-12T19:50:34.394Z,1.87
2018-06-12T19:55:38.367Z,1.77
2018-06-12T20:00:41.906Z,1.70
2018-06-12T20:05:45.245Z,1.90
2018-06-12T20:10:48.656Z,1.90
2018-06-12T20:15:52.462Z,2.05
2018-06-12T20:20:56.128Z,1.47
2018-06-12T20:25:59.537Z,1.87
2018-06-12T20:31:02.920Z,1.55
2018-06-12T20:36:06.643Z,1.60
2018-06-12T20:41:10.027Z,1.82
2018-06-12T20:46:13.359Z,1.75
2018-06-12T20:51:16.656Z,1.90
2018-06-12T20:56:20.227Z,1.80
2018-06-12T21:01:23.831Z,1.60
2018-06-12T21:06:27.148Z,1.50
2018-06-12T21:11:30.468Z,1.80
2018-06-12T21:16:33.860Z,1.80
2018-06-12T21:21:37.254Z,1.90
2018-06-12T21:26:40.571Z,1.70
2018-06-12T21:31:43.857Z,1.47
2018-06-12T21:36:48.016Z,1.87
2018-06-12T21:41:52.464Z,1.82
2018-06-12T21:46:55.756Z,1.60
2018-06-12T21:51:59.072Z,1.80
2018-06-12T21:57:02.551Z,1.52
2018-06-12T22:02:05.949Z,1.57
2018-06-12T22:07:09.220Z,1.40
2018-06-12T22:12:12.764Z,1.45
2018-06-12T22:17:16.581Z,1.45
2018-06-12T22:22:19.881Z,1.40
2018-06-12T22:27:23.305Z,1.72
2018-06-12T22:32:26.515Z,1.62
2018-06-12T22:37:29.800Z,1.20
2018-06-12T22:42:35.385Z,1.67
2018-06-12T22:47:38.787Z,1.55
2018-06-12T22:52:42.129Z,1.52
2018-06-12T22:57:45.728Z,1.70
2018-06-12T23:02:49.119Z,1.60
2018-06-12T23:07:52.591Z,1.40
2018-06-12T23:12:55.846Z,1.67
2018-06-12T23:17:59.296Z,1.50
2018-06-12T23:23:02.684Z,1.70
2018-06-12T23:28:06.294Z,2.08
2018-06-12T23:33:09.916Z,1.45
2018-06-12T23:38:13.398Z,1.60
2018-06-12T23:43:16.816Z,1.50
2018-06-12T23:48:20.314Z,1.30
2018-06-12T23:53:23.779Z,1.12
2018-06-12T23:58:27.211Z,1.27
